createdAt,value
2018-07-02T00:01:50.177Z,99270.95
2018-07-02T00:04:20.580Z,99272.94
2018-07-02T00:07:01.149Z,99261.08
2018-07-02T00:09:31.702Z,99259.91
2018-07-02T00:12:02.298Z,99255.48
2018-07-02T00:14:32.822Z,99257.01
2018-07-02T00:17:03.265Z,99260.28
2018-07-02T00:19:34.273Z,99259.70
2018-07-02T00:22:04.761Z,99261.71
2018-07-02T00:24:35.301Z,99265.00
2018-07-02T00:27:06.076Z,99267.80
2018-07-02T00:29:36.597Z,99260.83
2018-07-02T00:32:07.173Z,99263.11
2018-07-02T00:34:37.937Z,99261.95
2018-07-02T00:37:08.387Z,99254.92
2018-07-02T00:39:38.817Z,99244.20
2018-07-02T00:42:09.996Z,99242.59
2018-07-02T00:44:40.812Z,99249.52
2018-07-02T00:47:11.303Z,99254.14
2018-07-02T00:49:41.747Z,99282.94
2018-07-02T00:52:12.369Z,99253.27
2018-07-02T00:54:42.723Z,99237.17
2018-07-02T00:57:12.888Z,99252.81
2018-07-02T00:59:43.293Z,99251.98
2018-07-02T01:02:13.902Z,99254.05
2018-07-02T01:04:44.812Z,99211.62
2018-07-02T01:07:27.000Z,99246.22
2018-07-02T01:09:58.084Z,99245.28
2018-07-02T01:12:28.901Z,99239.50
2018-07-02T01:14:59.389Z,99240.82
2018-07-02T01:17:29.960Z,99227.89
2018-07-02T01:20:00.942Z,99240.12
2018-07-02T01:22:31.685Z,99240.40
2018-07-02T01:25:02.244Z,99240.19
2018-07-02T01:27:35.315Z,99231.81
2018-07-02T01:30:06.682Z,99230.45
2018-07-02T01:32:37.239Z,99230.63
2018-07-02T01:35:08.262Z,99228.94
2018-07-02T01:37:38.900Z,99219.06
2018-07-02T01:40:09.514Z,99219.23
2018-07-02T01:42:40.269Z,99207.56
2018-07-02T01:45:10.796Z,99233.47
2018-07-02T01:47:41.191Z,99234.05
2018-07-02T01:50:12.095Z,99235.52
2018-07-02T01:52:42.212Z,99233.12
2018-07-02T01:55:12.345Z,99226.16
2018-07-02T01:57:43.104Z,99232.67
2018-07-02T02:00:13.544Z,99227.22
2018-07-02T02:02:44.139Z,99233.86
2018-07-02T02:05:14.606Z,99226.86
2018-07-02T02:07:46.457Z,99257.81
2018-07-02T02:10:16.864Z,99237.37
2018-07-02T02:12:47.457Z,99233.58
2018-07-02T02:15:18.555Z,99233.93
2018-07-02T02:17:49.161Z,99230.52
2018-07-02T02:20:20.093Z,99231.17
2018-07-02T02:22:51.335Z,99229.26
2018-07-02T02:25:21.867Z,99213.83
2018-07-02T02:27:52.400Z,99225.17
2018-07-02T02:30:23.100Z,99228.74
2018-07-02T02:32:54.153Z,99232.56
2018-07-02T02:35:24.612Z,99233.14
2018-07-02T02:37:55.320Z,99233.57
2018-07-02T02:40:26.560Z,99235.11
2018-07-02T02:42:57.595Z,99245.29
2018-07-02T02:45:28.301Z,99238.56
2018-07-02T02:47:58.824Z,99236.63
2018-07-02T02:50:29.351Z,99240.20
2018-07-02T02:52:59.861Z,99232.80
2018-07-02T02:55:30.756Z,99236.69
2018-07-02T02:58:01.248Z,99235.48
2018-07-02T03:00:31.761Z,99228.39
2018-07-02T03:03:02.627Z,99237.17
2018-07-02T03:05:33.312Z,99240.38
2018-07-02T03:08:03.908Z,99240.87
2018-07-02T03:10:34.392Z,99242.06
2018-07-02T03:13:04.972Z,99245.49
2018-07-02T03:15:35.674Z,99237.23
2018-07-02T03:18:06.196Z,99247.78
2018-07-02T03:20:36.874Z,99226.18
2018-07-02T03:23:07.695Z,99243.38
2018-07-02T03:25:38.208Z,99238.66
2018-07-02T03:28:08.636Z,99237.95
2018-07-02T03:30:39.388Z,99233.19
2018-07-02T03:33:10.079Z,99234.20
2018-07-02T03:35:40.652Z,99245.18
2018-07-02T03:38:11.114Z,99244.70
2018-07-02T03:40:42.069Z,99274.82
2018-07-02T03:43:12.625Z,99246.05
2018-07-02T03:45:43.126Z,99247.15
2018-07-02T03:48:13.668Z,99251.72
2018-07-02T03:50:44.304Z,99257.48
2018-07-02T03:53:14.922Z,99243.47
2018-07-02T03:55:45.457Z,99247.07
2018-07-02T03:58:16.081Z,99256.16
2018-07-02T04:00:46.932Z,99262.16
2018-07-02T04:03:17.680Z,99261.45
2018-07-02T04:05:48.392Z,99272.41
2018-07-02T04:08:19.040Z,99274.36
2018-07-02T04:10:51.987Z,99263.25
2018-07-02T04:13:22.620Z,99260.92
2018-07-02T04:15:53.284Z,99267.23
2018-07-02T04:18:24.263Z,99265.36
2018-07-02T04:20:54.780Z,99253.98
2018-07-02T04:23:25.244Z,99239.33
2018-07-02T04:25:55.978Z,99253.44
2018-07-02T04:28:26.755Z,99247.42
2018-07-02T04:30:58.006Z,99251.50
2018-07-02T04:33:28.385Z,99247.23
2018-07-02T04:35:58.908Z,99236.23
2018-07-02T04:38:30.301Z,99255.69
2018-07-02T04:41:00.932Z,99254.13
2018-07-02T04:43:31.638Z,99254.84
2018-07-02T04:46:02.260Z,99270.28
2018-07-02T04:48:32.903Z,99245.34
2018-07-02T04:51:03.073Z,99245.79
2018-07-02T04:53:34.109Z,99244.72
2018-07-02T04:56:04.798Z,99246.23
2018-07-02T04:58:35.268Z,99193.35
2018-07-02T05:01:06.324Z,99252.27
2018-07-02T05:03:36.984Z,99261.06
2018-07-02T05:06:08.365Z,99258.30
2018-07-02T05:08:39.145Z,99254.80
2018-07-02T05:11:09.965Z,99244.81
2018-07-02T05:13:40.504Z,99248.33
2018-07-02T05:16:15.973Z,99245.18
2018-07-02T05:18:46.328Z,99243.38
2018-07-02T05:21:16.708Z,99259.44
2018-07-02T05:23:47.205Z,99258.77
2018-07-02T05:26:17.685Z,99261.94
2018-07-02T05:28:48.369Z,99192.78
2018-07-02T05:31:18.473Z,99266.98
2018-07-02T05:33:49.493Z,99264.47
2018-07-02T05:36:19.636Z,99262.94
2018-07-02T05:38:50.285Z,99252.20
2018-07-02T05:41:20.885Z,99264.46
2018-07-02T05:43:50.936Z,99266.80
2018-07-02T05:46:21.236Z,99268.67
2018-07-02T05:48:52.236Z,99271.20
2018-07-02T05:51:22.637Z,99266.40
2018-07-02T05:53:53.556Z,99269.70
2018-07-02T05:56:24.368Z,99270.44
2018-07-02T05:58:54.832Z,99261.45
2018-07-02T06:01:25.628Z,99262.62
2018-07-02T06:03:55.996Z,99266.19
2018-07-02T06:06:26.545Z,99254.24
2018-07-02T06:08:57.413Z,99263.93
2018-07-02T06:11:27.416Z,99258.88
2018-07-02T06:13:57.453Z,99258.62
2018-07-02T06:16:28.216Z,99250.67
2018-07-02T06:18:58.278Z,99258.50
2018-07-02T06:21:28.818Z,99260.49
2018-07-02T06:23:59.797Z,99230.24
2018-07-02T06:26:30.300Z,99250.24
2018-07-02T06:29:00.857Z,99270.44
2018-07-02T06:31:31.173Z,99262.70
2018-07-02T06:34:01.225Z,99266.05
2018-07-02T06:36:31.340Z,99264.41
2018-07-02T06:39:01.674Z,99266.01
2018-07-02T06:41:31.693Z,99256.35
2018-07-02T06:44:01.773Z,99263.17
2018-07-02T06:46:32.157Z,99273.95
2018-07-02T06:49:02.944Z,99270.93
2018-07-02T06:51:33.404Z,99274.63
2018-07-02T06:54:04.427Z,99279.88
2018-07-02T06:56:34.533Z,99272.13
2018-07-02T06:59:04.960Z,99261.03
2018-07-02T07:01:36.046Z,99277.12
2018-07-02T07:04:06.176Z,99276.98
2018-07-02T07:06:36.766Z,99285.14
2018-07-02T07:09:09.773Z,99283.35
2018-07-02T07:11:40.518Z,99275.53
2018-07-02T07:14:10.906Z,99273.12
2018-07-02T07:16:41.028Z,99264.31
2018-07-02T07:19:11.104Z,99268.22
2018-07-02T07:21:41.474Z,99264.42
2018-07-02T07:24:11.804Z,99268.05
2018-07-02T07:26:42.267Z,99273.61
2018-07-02T07:29:12.913Z,99262.89
2018-07-02T07:31:43.393Z,99262.34
2018-07-02T07:34:13.912Z,99261.20
2018-07-02T07:36:44.803Z,99257.33
2018-07-02T07:39:15.909Z,99252.07
2018-07-02T07:41:45.922Z,99257.98
2018-07-02T07:44:17.296Z,99262.72
2018-07-02T07:46:47.369Z,99263.02
2018-07-02T07:49:18.437Z,99262.95
2018-07-02T07:51:48.777Z,99248.14
2018-07-02T07:54:19.845Z,99258.97
2018-07-02T07:56:50.068Z,99265.50
2018-07-02T07:59:20.552Z,99259.88
2018-07-02T08:01:51.056Z,99257.38
2018-07-02T08:04:21.370Z,99246.16
2018-07-02T08:06:52.978Z,99242.07
2018-07-02T08:09:23.436Z,99257.41
2018-07-02T08:11:53.482Z,99248.66
2018-07-02T08:14:23.822Z,99252.94
2018-07-02T08:16:54.286Z,99242.45
2018-07-02T08:19:25.101Z,99266.42
2018-07-02T08:21:55.772Z,99233.14
2018-07-02T08:24:26.137Z,99262.08
2018-07-02T08:26:56.189Z,99252.14
2018-07-02T08:29:26.900Z,99260.73
2018-07-02T08:31:56.909Z,99251.66
2018-07-02T08:34:26.924Z,99251.09
2018-07-02T08:36:57.261Z,99251.00
2018-07-02T08:39:27.304Z,99244.93
2018-07-02T08:41:57.370Z,99248.97
2018-07-02T08:44:27.756Z,99253.33
2018-07-02T08:46:57.789Z,99256.97
2018-07-02T08:49:27.841Z,99218.59
2018-07-02T08:51:58.257Z,99254.33
2018-07-02T08:54:28.344Z,99255.19
2018-07-02T08:56:58.360Z,99252.17
2018-07-02T08:59:29.072Z,99193.36
2018-07-02T09:02:00.065Z,99242.80
2018-07-02T09:04:30.380Z,99242.99
2018-07-02T09:07:00.646Z,99235.36
2018-07-02T09:09:30.766Z,99236.41
2018-07-02T09:12:01.220Z,99239.72
2018-07-02T09:14:31.702Z,99220.38
2018-07-02T09:17:01.837Z,99219.52
2018-07-02T09:19:32.221Z,99217.38
2018-07-02T09:22:02.744Z,99233.52
2018-07-02T09:24:33.504Z,99227.44
2018-07-02T09:27:03.603Z,99231.06
2018-07-02T09:29:33.668Z,99221.75
2018-07-02T09:32:04.019Z,99220.97
2018-07-02T09:34:34.112Z,99216.98
2018-07-02T09:37:04.521Z,99225.11
2018-07-02T09:39:35.006Z,99221.92
2018-07-02T09:42:05.120Z,99194.03
2018-07-02T09:44:35.632Z,99222.23
2018-07-02T09:47:06.513Z,99217.88
2018-07-02T09:49:36.632Z,99220.23
2018-07-02T09:52:07.147Z,99218.57
2018-07-02T09:54:37.917Z,99217.55
2018-07-02T09:57:08.297Z,99229.08
2018-07-02T09:59:38.324Z,99225.13
2018-07-02T10:02:09.216Z,99227.42
2018-07-02T10:04:39.316Z,99222.01
2018-07-02T10:07:09.369Z,99223.28
2018-07-02T10:09:39.695Z,99214.50
2018-07-02T10:12:09.009Z,99222.16
2018-07-02T10:14:39.087Z,99219.77
2018-07-02T10:17:09.484Z,99220.45
2018-07-02T10:19:39.560Z,99226.77
2018-07-02T10:22:09.600Z,99225.71
2018-07-02T10:24:40.305Z,99227.34
2018-07-02T10:27:10.764Z,99210.49
2018-07-02T10:29:40.794Z,99217.05
2018-07-02T10:32:11.723Z,99212.61
2018-07-02T10:34:41.894Z,99206.41
2018-07-02T10:37:12.045Z,99213.93
2018-07-02T10:39:42.420Z,99222.64
2018-07-02T10:42:12.603Z,99196.61
2018-07-02T10:44:42.986Z,99204.30
2018-07-02T10:47:13.285Z,99223.91
2018-07-02T10:49:43.639Z,99215.30
2018-07-02T10:52:13.712Z,99202.11
2018-07-02T10:54:44.112Z,99204.17
2018-07-02T10:57:14.497Z,99205.20
2018-07-02T10:59:44.924Z,99199.73
2018-07-02T11:02:15.580Z,99195.81
2018-07-02T11:04:46.030Z,99195.20
2018-07-02T11:07:16.084Z,99202.97
2018-07-02T11:09:46.466Z,99197.30
2018-07-02T11:12:17.024Z,99203.03
2018-07-02T11:14:47.076Z,99195.37
2018-07-02T11:17:17.483Z,99180.02
2018-07-02T11:19:47.567Z,99185.84
2018-07-02T11:22:17.928Z,99182.00
2018-07-02T11:24:48.261Z,99186.93
2018-07-02T11:27:18.757Z,99182.14
2018-07-02T11:29:48.860Z,99165.97
2018-07-02T11:32:19.593Z,99179.84
2018-07-02T11:34:49.630Z,99166.19
2018-07-02T11:37:19.849Z,99161.70
2018-07-02T11:39:50.160Z,99166.17
2018-07-02T11:42:21.008Z,99157.68
2018-07-02T11:44:51.053Z,99141.24
2018-07-02T11:47:21.490Z,99161.51
2018-07-02T11:49:51.556Z,99168.97
2018-07-02T11:52:21.636Z,99157.52
2018-07-02T11:54:52.284Z,99149.31
2018-07-02T11:57:22.365Z,99155.73
2018-07-02T11:59:52.637Z,99148.29
2018-07-02T12:02:22.827Z,99149.91
2018-07-02T12:04:52.929Z,99155.56
2018-07-02T12:07:23.288Z,99162.79
2018-07-02T12:09:53.971Z,99159.16
2018-07-02T12:12:24.119Z,99154.33
2018-07-02T12:14:54.541Z,99148.25
2018-07-02T12:17:24.901Z,99158.78
2018-07-02T12:19:55.892Z,99152.14
2018-07-02T12:22:25.944Z,99152.81
2018-07-02T12:24:56.284Z,99157.89
2018-07-02T12:27:26.457Z,99160.53
2018-07-02T12:29:56.493Z,99158.79
2018-07-02T12:32:26.844Z,99153.13
2018-07-02T12:34:56.891Z,99161.96
2018-07-02T12:37:27.489Z,99156.11
2018-07-02T12:39:57.826Z,99148.63
2018-07-02T12:42:27.964Z,99153.20
2018-07-02T12:44:57.976Z,99128.86
2018-07-02T12:47:28.905Z,99146.25
2018-07-02T12:49:59.050Z,99153.29
2018-07-02T12:52:29.141Z,99158.19
2018-07-02T12:54:59.501Z,99153.07
2018-07-02T12:57:30.118Z,99140.77
2018-07-02T13:00:00.157Z,99147.86
2018-07-02T13:02:30.677Z,99154.50
2018-07-02T13:05:01.925Z,99140.41
2018-07-02T13:07:32.035Z,99147.70
2018-07-02T13:10:02.441Z,99147.76
2018-07-02T13:12:32.829Z,99135.34
2018-07-02T13:15:02.866Z,99154.63
2018-07-02T13:17:34.475Z,99150.72
2018-07-02T13:20:05.686Z,99128.56
2018-07-02T13:22:36.286Z,99126.64
2018-07-02T13:25:06.361Z,99134.14
2018-07-02T13:27:36.757Z,99101.11
2018-07-02T13:30:08.121Z,99134.56
2018-07-02T13:32:38.213Z,99111.44
2018-07-02T13:35:08.372Z,99139.70
2018-07-02T13:37:38.895Z,99100.65
2018-07-02T13:40:10.694Z,99089.32
2018-07-02T13:42:43.030Z,99095.06
2018-07-02T13:45:13.541Z,99119.09
2018-07-02T13:47:43.709Z,99130.66
2018-07-02T13:50:13.937Z,99123.63
2018-07-02T13:52:44.373Z,99123.31
2018-07-02T13:55:14.585Z,99115.95
2018-07-02T13:57:44.742Z,99127.19
2018-07-02T14:00:15.123Z,99114.88
2018-07-02T14:02:45.388Z,99112.30
2018-07-02T14:05:15.444Z,99099.95
2018-07-02T14:07:45.822Z,99096.34
2018-07-02T14:10:15.889Z,99107.52
2018-07-02T14:12:49.225Z,99116.27
2018-07-02T14:15:19.648Z,99090.66
2018-07-02T14:17:50.614Z,99105.26
2018-07-02T14:20:20.766Z,99102.92
2018-07-02T14:22:51.056Z,99084.09
2018-07-02T14:25:21.117Z,99096.36
2018-07-02T14:27:51.188Z,99093.75
2018-07-02T14:30:21.273Z,99101.23
2018-07-02T14:32:51.671Z,99090.83
2018-07-02T14:35:21.746Z,99086.06
2018-07-02T14:37:51.855Z,99096.63
2018-07-02T14:40:22.210Z,99092.94
2018-07-02T14:42:52.313Z,99086.09
2018-07-02T14:45:22.448Z,99086.12
2018-07-02T14:47:52.861Z,99096.51
2018-07-02T14:50:22.848Z,99086.30
2018-07-02T14:52:53.042Z,99095.81
2018-07-02T14:55:23.417Z,99091.38
2018-07-02T14:57:53.505Z,99084.17
2018-07-02T15:00:23.594Z,99090.16
2018-07-02T15:02:53.929Z,99078.44
2018-07-02T15:05:23.989Z,99083.92
2018-07-02T15:07:54.033Z,99089.41
2018-07-02T15:10:24.317Z,99066.78
2018-07-02T15:12:54.380Z,99079.22
2018-07-02T15:15:26.286Z,98996.89
2018-07-02T15:17:56.357Z,99074.30
2018-07-02T15:20:26.433Z,99088.41
2018-07-02T15:22:56.885Z,99083.75
2018-07-02T15:25:27.037Z,99089.70
2018-07-02T15:27:57.125Z,99085.28
2018-07-02T15:30:27.449Z,99028.62
2018-07-02T15:32:57.906Z,99049.00
2018-07-02T15:35:28.567Z,99083.66
2018-07-02T15:37:58.627Z,99080.91
2018-07-02T15:40:30.836Z,99075.94
2018-07-02T15:43:00.921Z,99082.94
2018-07-02T15:45:33.414Z,99081.89
2018-07-02T15:48:04.440Z,99079.09
2018-07-02T15:50:34.477Z,99068.34
2018-07-02T15:53:05.675Z,99066.55
2018-07-02T15:55:36.769Z,99079.18
2018-07-02T15:58:06.893Z,99075.14
2018-07-02T16:00:37.294Z,99074.77
2018-07-02T16:03:07.484Z,99086.28
2018-07-02T16:05:37.604Z,99071.84
2018-07-02T16:08:07.956Z,99058.96
2018-07-02T16:10:38.116Z,99081.77
2018-07-02T16:13:08.321Z,99083.88
2018-07-02T16:15:38.768Z,99084.67
2018-07-02T16:18:13.980Z,99078.79
2018-07-02T16:23:37.741Z,99077.28
2018-07-02T16:26:08.167Z,99075.59
2018-07-02T16:28:39.073Z,99080.25
2018-07-02T16:31:09.149Z,99078.08
2018-07-02T16:33:39.585Z,99081.13
2018-07-02T16:36:09.618Z,99077.38
2018-07-02T16:38:40.714Z,99069.08
2018-07-02T16:41:11.081Z,99080.39
2018-07-02T16:43:41.181Z,99080.16
2018-07-02T16:46:11.497Z,99072.33
2018-07-02T16:48:41.853Z,99079.95
2018-07-02T16:51:11.900Z,99078.38
2018-07-02T16:53:42.052Z,99072.20
2018-07-02T16:56:13.481Z,99077.17
2018-07-02T16:58:43.532Z,99075.59
2018-07-02T17:01:13.639Z,99083.56
2018-07-02T17:03:44.080Z,99080.86
2018-07-02T17:06:14.181Z,99089.67
2018-07-02T17:08:44.836Z,99079.56
2018-07-02T17:11:16.711Z,99083.19
2018-07-02T17:13:47.699Z,99065.92
2018-07-02T17:16:18.065Z,99071.52
2018-07-02T17:18:54.029Z,99087.16
2018-07-02T17:21:24.435Z,99091.99
2018-07-02T17:26:33.009Z,98999.11
2018-07-02T17:29:05.361Z,99037.16
2018-07-02T17:31:37.277Z,99054.23
2018-07-02T17:34:10.640Z,99090.39
2018-07-02T17:36:41.253Z,99091.06
2018-07-02T17:39:12.176Z,99080.81
2018-07-02T17:41:42.299Z,99097.29
2018-07-02T17:44:12.441Z,99087.65
2018-07-02T17:46:42.769Z,99085.17
2018-07-02T17:49:16.967Z,99078.95
2018-07-02T17:51:46.989Z,99082.30
2018-07-02T17:54:17.313Z,99082.45
2018-07-02T17:56:47.384Z,99084.92
2018-07-02T17:59:17.474Z,99065.55
2018-07-02T18:01:47.841Z,99059.56
2018-07-02T18:04:17.944Z,99088.17
2018-07-02T18:06:48.004Z,99058.16
2018-07-02T18:09:18.349Z,99084.80
2018-07-02T18:11:48.894Z,99099.52
2018-07-02T18:14:26.974Z,99087.52
2018-07-02T18:16:59.071Z,99085.42
2018-07-02T18:19:29.484Z,99088.77
2018-07-02T18:21:59.563Z,99094.95
2018-07-02T18:24:29.920Z,99097.11
2018-07-02T18:27:00.037Z,99097.06
2018-07-02T18:29:30.297Z,99065.32
2018-07-02T18:32:00.689Z,99092.16
2018-07-02T18:34:30.782Z,99096.44
2018-07-02T18:37:00.856Z,99100.28
2018-07-02T18:39:31.321Z,99100.42
2018-07-02T18:42:01.833Z,99099.99
2018-07-02T18:44:33.348Z,99096.48
2018-07-02T18:47:04.814Z,99091.84
2018-07-02T18:49:34.898Z,99086.70
2018-07-02T18:52:05.917Z,99104.75
2018-07-02T18:54:36.268Z,99102.56
2018-07-02T18:57:06.837Z,99108.47
2018-07-02T18:59:36.941Z,99105.59
2018-07-02T19:02:07.672Z,99111.73
2018-07-02T19:04:38.681Z,99113.48
2018-07-02T19:07:09.233Z,99099.31
2018-07-02T19:09:39.225Z,99114.33
2018-07-02T19:12:14.200Z,99113.12
2018-07-02T19:14:48.444Z,99054.20
2018-07-02T19:17:18.548Z,99115.58
2018-07-02T19:19:48.810Z,99114.14
2018-07-02T19:22:19.188Z,99113.20
2018-07-02T19:24:49.302Z,99117.27
2018-07-02T19:27:19.497Z,99116.48
2018-07-02T19:29:50.169Z,99119.73
2018-07-02T19:32:20.340Z,99123.00
2018-07-02T19:34:50.460Z,99125.25
2018-07-02T19:37:20.810Z,99124.52
2018-07-02T19:39:51.296Z,99126.06
2018-07-02T19:42:21.292Z,99123.24
2018-07-02T19:44:51.545Z,99133.08
2018-07-02T19:47:21.573Z,99139.84
2018-07-02T19:49:51.681Z,99145.44
2018-07-02T19:52:22.037Z,99122.77
2018-07-02T19:54:52.647Z,99117.02
2018-07-02T19:57:22.680Z,99145.95
2018-07-02T19:59:53.055Z,99149.88
2018-07-02T20:02:24.088Z,99149.13
2018-07-02T20:05:07.877Z,99154.14
2018-07-02T20:07:38.459Z,99149.88
2018-07-02T20:10:08.585Z,99161.19
2018-07-02T20:12:40.541Z,99155.24
2018-07-02T20:15:10.621Z,99158.65
2018-07-02T20:17:48.368Z,99116.86
2018-07-02T20:20:19.016Z,99157.84
2018-07-02T20:22:49.242Z,99152.92
2018-07-02T20:25:19.662Z,99150.53
2018-07-02T20:27:49.756Z,99136.92
2018-07-02T20:30:19.824Z,99164.92
2018-07-02T20:32:50.220Z,99157.42
2018-07-02T20:35:20.796Z,99154.13
2018-07-02T20:37:51.091Z,99160.26
2018-07-02T20:40:22.268Z,99149.28
2018-07-02T20:42:52.452Z,99174.87
2018-07-02T20:45:22.825Z,99171.91
2018-07-02T20:47:53.435Z,99142.33
2018-07-02T20:50:23.501Z,99163.73
2018-07-02T20:52:53.891Z,99174.90
2018-07-02T20:55:23.936Z,99179.02
2018-07-02T20:57:54.460Z,99176.18
2018-07-02T21:00:32.041Z,99177.94
2018-07-02T21:03:03.522Z,99176.78
2018-07-02T21:05:33.940Z,99182.67
2018-07-02T21:08:04.531Z,99143.60
2018-07-02T21:10:34.756Z,99171.44
2018-07-02T21:13:05.406Z,99172.82
2018-07-02T21:15:37.505Z,99162.63
2018-07-02T21:18:07.649Z,99167.73
2018-07-02T21:23:12.429Z,99199.36
2018-07-02T21:25:42.558Z,99175.33
2018-07-02T21:28:12.929Z,99175.04
2018-07-02T21:30:47.745Z,99178.84
2018-07-02T21:33:18.399Z,99152.20
2018-07-02T21:35:48.504Z,99179.15
2018-07-02T21:38:18.660Z,99177.41
2018-07-02T21:40:49.784Z,99153.23
2018-07-02T21:43:19.861Z,99167.03
2018-07-02T21:45:50.123Z,99180.19
2018-07-02T21:48:20.605Z,99178.94
2018-07-02T21:50:50.707Z,99180.30
2018-07-02T21:53:20.819Z,99175.10
2018-07-02T21:55:51.462Z,99176.95
2018-07-02T21:58:21.580Z,99175.70
2018-07-02T22:00:51.616Z,99173.45
2018-07-02T22:03:21.954Z,99182.09
2018-07-02T22:05:52.041Z,99181.89
2018-07-02T22:08:22.085Z,99186.09
2018-07-02T22:10:52.563Z,99191.08
2018-07-02T22:13:22.999Z,99186.95
2018-07-02T22:15:53.105Z,99191.29
2018-07-02T22:18:23.717Z,99195.99
2018-07-02T22:20:53.766Z,99193.80
2018-07-02T22:23:23.916Z,99199.80
2018-07-02T22:25:54.330Z,99198.09
2018-07-02T22:28:24.377Z,99197.47
2018-07-02T22:30:54.457Z,99199.28
2018-07-02T22:33:24.792Z,99193.94
2018-07-02T22:35:54.869Z,99194.70
2018-07-02T22:38:24.936Z,99194.58
2018-07-02T22:40:55.664Z,99197.83
2018-07-02T22:43:25.778Z,99186.73
2018-07-02T22:45:55.895Z,99192.37
2018-07-02T22:48:26.364Z,99191.36
2018-07-02T22:50:56.868Z,99204.66
2018-07-02T22:53:26.904Z,99198.67
2018-07-02T22:56:03.512Z,99206.23
2018-07-02T22:58:34.455Z,99209.42
2018-07-02T23:01:05.015Z,99209.41
2018-07-02T23:03:35.356Z,99212.98
2018-07-02T23:06:05.688Z,99207.87
2018-07-02T23:08:35.736Z,99184.97
2018-07-02T23:11:06.509Z,99211.08
2018-07-02T23:13:36.602Z,99206.25
2018-07-02T23:16:06.792Z,99204.99
2018-07-02T23:18:36.912Z,99199.75
2018-07-02T23:26:48.225Z,99206.94
2018-07-02T23:29:18.152Z,99203.63
2018-07-02T23:31:47.709Z,99194.09
2018-07-02T23:34:17.288Z,99204.53
2018-07-02T23:36:47.181Z,99202.74
2018-07-02T23:39:16.741Z,99206.82
2018-07-02T23:41:46.239Z,99179.69
2018-07-02T23:44:16.579Z,99179.04
2018-07-02T23:46:47.657Z,99191.52
2018-07-02T23:49:17.603Z,99199.44
2018-07-02T23:51:47.865Z,99198.79
2018-07-02T23:54:18.055Z,99196.13
2018-07-02T23:56:47.585Z,99192.03
2018-07-02T23:59:17.450Z,99194.98
